Bill Street, United Kingdom
Current Conditions -  °F | °C
As of 2:50 PM on Sunday 23 Nov 2014 (Local Time) from EGMC Reporting Station
Light Rain Light Rain  
Wind Chill: 39°   Ceiling: 900
Heat Index: 45°   Visibility: 4mi
Dew Point: 43°   Wind: 10mph
Humidity: 93%   Direction: 340°NNW
Pressure: 30"   Gusts: NA
Location:  51.41°N, 0.54°E
Report Text: EGMC 231450Z 34009KT 310V010 6000 -RA BKN009 OVC012 07/06 Q1016
Loading
Personal Weather Stations






























Interactive Weather Map New forecast layout! Learn more

10-Day Weather Forecast

Advertisements
Track Severe Weather on mobile